Time;durP1;ratioP1;P1;durP2;ratioP2;P2;SDS_P1;SDS_P2;PMS_P1;PMS_P2;Temp;Humidity;BMP_temperature;BMP_pressure;BME280_temperature;BME280_humidity;BME280_pressure;Samples;Min_cycle;Max_cycle;Signal;HPM_P1;HPM_P2
2022/03/26 00:04:40;;;;;;;25.25;9.07;;;6.80;73.10;;;;;;10408520;28;20052;-61
2022/03/26 00:09:42;;;;;;;26.13;10.20;;;6.60;73.60;;;;;;10403038;28;20057;-61
2022/03/26 00:14:44;;;;;;;25.48;9.35;;;6.60;74.30;;;;;;10405131;28;20104;-63
2022/03/26 00:19:45;;;;;;;29.08;9.98;;;6.50;75.40;;;;;;10403748;28;20126;-63
2022/03/26 00:24:47;;;;;;;24.55;9.98;;;6.40;76.10;;;;;;10404614;28;20126;-63
2022/03/26 00:29:49;;;;;;;26.60;8.38;;;6.20;77.80;;;;;;10404598;28;20103;-63
2022/03/26 00:34:50;;;;;;;24.77;10.00;;;6.20;77.30;;;;;;10406366;28;20119;-63
2022/03/26 00:39:53;;;;;;;25.27;9.10;;;6.10;79.70;;;;;;10403926;28;20399;-63
2022/03/26 00:44:55;;;;;;;33.13;10.82;;;6.10;77.40;;;;;;10398411;28;20049;-63
2022/03/26 00:49:57;;;;;;;24.92;8.45;;;6.00;78.60;;;;;;10414803;28;20447;-63
2022/03/26 00:54:58;;;;;;;22.55;7.75;;;5.90;76.70;;;;;;10402750;28;20052;-63
2022/03/26 01:00:00;;;;;;;20.95;7.57;;;5.90;77.00;;;;;;10406666;28;20060;-63
2022/03/26 01:05:04;;;;;;;20.27;7.28;;;5.90;77.00;;;;;;10408574;28;20050;-61
2022/03/26 01:10:09;;;;;;;23.67;7.68;;;5.80;77.00;;;;;;10412611;28;20057;-64
2022/03/26 01:15:10;;;;;;;32.22;8.75;;;5.80;77.40;;;;;;10411493;28;20163;-64
2022/03/26 01:20:12;;;;;;;19.50;6.82;;;5.80;77.50;;;;;;10404103;28;20412;-63
2022/03/26 01:25:14;;;;;;;25.73;7.18;;;5.80;76.80;;;;;;10410183;28;20153;-63
2022/03/26 01:30:16;;;;;;;26.55;8.98;;;5.80;76.90;;;;;;10407511;28;20102;-63
2022/03/26 01:35:18;;;;;;;23.15;8.15;;;5.70;77.10;;;;;;10412281;28;20119;-63
2022/03/26 01:40:20;;;;;;;28.92;7.57;;;5.70;77.10;;;;;;10409108;28;20047;-63
2022/03/26 01:45:21;;;;;;;24.90;7.38;;;5.60;77.50;;;;;;10409512;28;20706;-63
2022/03/26 01:50:24;;;;;;;21.48;7.70;;;5.50;77.60;;;;;;10408906;28;20056;-63
2022/03/26 01:55:27;;;;;;;26.60;8.25;;;5.50;78.50;;;;;;10407342;28;20061;-63
2022/03/26 02:00:29;;;;;;;25.35;9.07;;;5.40;77.90;;;;;;10409245;28;20059;-61
2022/03/26 02:05:32;;;;;;;27.77;8.55;;;5.30;78.30;;;;;;10408080;28;20051;-61
2022/03/26 02:10:33;;;;;;;24.88;7.65;;;5.20;78.80;;;;;;10403110;28;20537;-61
2022/03/26 02:15:37;;;;;;;23.48;8.25;;;5.20;79.40;;;;;;10405659;28;20041;-61
2022/03/26 02:20:39;;;;;;;24.45;7.97;;;5.20;79.20;;;;;;10410266;28;20476;-61
2022/03/26 02:25:41;;;;;;;23.80;7.57;;;5.20;79.70;;;;;;10408114;28;20044;-61
2022/03/26 02:30:43;;;;;;;21.60;7.72;;;5.10;79.60;;;;;;10413047;28;20080;-61
2022/03/26 02:35:44;;;;;;;29.35;7.65;;;5.10;80.20;;;;;;10397566;28;20123;-61
2022/03/26 02:40:46;;;;;;;20.77;7.72;;;5.10;81.50;;;;;;10409402;28;20106;-62
2022/03/26 02:45:48;;;;;;;28.85;8.68;;;5.00;82.10;;;;;;10408461;28;20044;-61
2022/03/26 02:50:50;;;;;;;24.08;7.97;;;4.90;82.70;;;;;;10405933;28;20057;-61
2022/03/26 02:55:56;;;;;;;28.17;8.57;;;4.80;82.70;;;;;;10409508;28;20076;-61
2022/03/26 03:00:58;;;;;;;19.23;7.75;;;4.80;83.00;;;;;;10408470;28;20638;-61
2022/03/26 03:06:00;;;;;;;26.77;7.78;;;4.70;83.40;;;;;;10409470;28;20059;-61
2022/03/26 03:11:01;;;;;;;19.52;7.82;;;4.60;84.50;;;;;;10402978;28;20076;-61
2022/03/26 03:16:04;;;;;;;26.73;8.10;;;4.60;84.40;;;;;;10403889;28;20057;-61
2022/03/26 03:21:05;;;;;;;25.63;7.47;;;4.60;85.10;;;;;;10409414;28;20064;-61
2022/03/26 03:26:07;;;;;;;22.60;7.72;;;4.50;85.50;;;;;;10406658;28;20495;-62
2022/03/26 03:31:09;;;;;;;20.10;7.00;;;4.50;85.70;;;;;;10402553;28;20048;-61
2022/03/26 03:36:11;;;;;;;19.92;6.78;;;4.50;86.20;;;;;;10400978;28;20064;-62
2022/03/26 03:41:13;;;;;;;17.52;6.28;;;4.50;86.00;;;;;;10408481;28;20044;-62
2022/03/26 03:46:15;;;;;;;22.77;7.55;;;4.50;85.00;;;;;;10397252;28;20122;-62
2022/03/26 03:51:16;;;;;;;21.88;6.90;;;4.50;85.20;;;;;;10404101;28;20124;-61
2022/03/26 03:56:18;;;;;;;22.55;7.43;;;4.60;84.60;;;;;;10408083;28;20088;-61
2022/03/26 04:01:20;;;;;;;21.98;6.82;;;4.60;84.50;;;;;;10409513;28;20068;-62
2022/03/26 04:06:22;;;;;;;24.92;7.80;;;4.70;84.00;;;;;;10403696;28;20049;-62
2022/03/26 04:11:23;;;;;;;20.90;7.35;;;4.70;84.50;;;;;;10410113;28;23767;-61
2022/03/26 04:16:25;;;;;;;21.55;7.03;;;4.70;84.70;;;;;;10404464;28;20049;-61
2022/03/26 04:21:27;;;;;;;19.75;7.38;;;4.70;85.20;;;;;;10402826;28;20045;-63
2022/03/26 04:26:28;;;;;;;22.08;7.35;;;4.60;86.70;;;;;;10405651;28;20134;-63
2022/03/26 04:31:30;;;;;;;20.77;7.30;;;4.50;88.30;;;;;;10401441;28;20057;-63
2022/03/26 04:36:32;;;;;;;27.35;7.45;;;4.40;89.50;;;;;;10406582;28;20068;-63
2022/03/26 04:41:33;;;;;;;21.90;7.70;;;4.30;88.80;;;;;;10415010;28;20142;-63
2022/03/26 04:46:35;;;;;;;22.63;6.97;;;4.30;90.20;;;;;;10414708;28;20047;-63
2022/03/26 04:51:37;;;;;;;20.60;8.57;;;4.20;90.90;;;;;;10411634;28;20111;-63
2022/03/26 04:56:39;;;;;;;22.65;7.40;;;4.20;91.60;;;;;;10410306;28;20606;-62
2022/03/26 05:01:44;;;;;;;17.08;6.68;;;4.20;91.80;;;;;;10414516;28;20037;-63
2022/03/26 05:06:45;;;;;;;25.27;7.70;;;4.10;92.50;;;;;;10418805;28;20045;-63
2022/03/26 05:11:47;;;;;;;27.52;8.95;;;4.20;92.80;;;;;;10408313;28;20107;-63
2022/03/26 05:16:49;;;;;;;24.70;8.02;;;4.10;93.30;;;;;;10414328;28;20044;-68
2022/03/26 05:21:50;;;;;;;21.08;7.78;;;4.10;93.10;;;;;;10402791;28;20057;-68
2022/03/26 05:26:52;;;;;;;24.65;7.28;;;4.10;93.50;;;;;;10414565;28;20111;-69
2022/03/26 05:31:54;;;;;;;28.10;8.52;;;4.10;93.30;;;;;;10407364;28;20185;-69
2022/03/26 05:36:56;;;;;;;19.80;7.80;;;4.10;93.60;;;;;;10406375;28;20103;-69
2022/03/26 05:41:58;;;;;;;28.85;8.20;;;4.10;93.30;;;;;;10410297;28;20073;-69
2022/03/26 05:47:00;;;;;;;26.55;8.75;;;4.10;93.60;;;;;;10410750;28;20053;-69
2022/03/26 05:52:03;;;;;;;26.08;10.18;;;4.10;94.40;;;;;;10409830;28;20075;-69
2022/03/26 05:57:04;;;;;;;18.45;7.30;;;4.10;94.00;;;;;;10404222;28;20057;-69
2022/03/26 06:02:06;;;;;;;21.98;7.35;;;4.20;94.30;;;;;;10411710;28;20207;-69
2022/03/26 06:07:08;;;;;;;24.50;8.02;;;4.20;94.40;;;;;;10412883;28;20056;-69
2022/03/26 06:12:10;;;;;;;23.65;7.93;;;4.20;94.90;;;;;;10408434;28;20107;-69
2022/03/26 06:17:12;;;;;;;25.38;7.75;;;4.40;95.30;;;;;;10410007;28;20183;-69
2022/03/26 06:22:13;;;;;;;24.63;8.02;;;4.40;95.50;;;;;;10405693;28;20073;-69
2022/03/26 06:27:15;;;;;;;26.17;9.20;;;4.50;95.20;;;;;;10411944;28;20052;-69
2022/03/26 06:32:17;;;;;;;25.65;9.05;;;4.60;95.40;;;;;;10412749;28;20489;-70
2022/03/26 06:37:21;;;;;;;20.95;7.40;;;4.80;95.80;;;;;;10415477;28;20521;-69
2022/03/26 06:42:22;;;;;;;21.95;8.02;;;4.90;95.90;;;;;;10410206;28;20084;-69
2022/03/26 06:47:26;;;;;;;27.38;9.25;;;5.10;95.70;;;;;;10406819;28;20057;-70
2022/03/26 06:52:28;;;;;;;24.90;8.50;;;5.30;95.00;;;;;;10407046;28;20052;-68
2022/03/26 06:57:30;;;;;;;31.70;8.23;;;5.50;94.00;;;;;;10409993;28;20040;-68
2022/03/26 07:02:31;;;;;;;28.13;9.65;;;5.70;93.50;;;;;;10419650;28;20471;-69
2022/03/26 07:07:33;;;;;;;25.15;9.00;;;6.00;92.70;;;;;;10403561;28;20128;-68
2022/03/26 07:12:35;;;;;;;27.65;9.43;;;6.20;92.30;;;;;;10412174;28;20049;-68
2022/03/26 07:17:44;;;;;;;28.42;9.73;;;6.40;92.40;;;;;;10409222;28;20068;-70
2022/03/26 07:22:45;;;;;;;26.95;8.27;;;6.70;92.50;;;;;;10406887;28;20110;-70
2022/03/26 07:27:47;;;;;;;32.53;9.52;;;6.90;92.10;;;;;;10406487;28;20548;-70
2022/03/26 07:32:49;;;;;;;26.85;9.10;;;7.20;90.70;;;;;;10407675;28;20049;-70
2022/03/26 07:37:51;;;;;;;26.05;9.60;;;7.50;90.00;;;;;;10410450;28;20088;-66
2022/03/26 07:42:52;;;;;;;24.63;10.18;;;7.80;87.70;;;;;;10402872;28;20118;-67
2022/03/26 07:47:56;;;;;;;28.80;10.32;;;8.10;86.70;;;;;;10409819;28;20053;-68
2022/03/26 07:52:57;;;;;;;25.15;8.98;;;8.40;84.20;;;;;;10408917;28;20052;-68
2022/03/26 07:58:00;;;;;;;31.75;10.60;;;8.70;84.10;;;;;;10423157;28;20045;-68
2022/03/26 08:03:01;;;;;;;26.50;9.75;;;9.10;80.90;;;;;;10401816;28;20041;-68
2022/03/26 08:08:03;;;;;;;26.23;8.95;;;9.50;77.90;;;;;;10409450;28;20053;-68
2022/03/26 08:13:05;;;;;;;31.33;10.43;;;9.80;74.80;;;;;;10421014;28;20072;-68
2022/03/26 08:18:08;;;;;;;30.30;10.55;;;10.10;73.90;;;;;;10412836;28;20076;-68
2022/03/26 08:23:09;;;;;;;26.10;9.77;;;10.30;71.70;;;;;;10417423;28;20142;-68
2022/03/26 08:28:12;;;;;;;28.40;10.05;;;10.50;71.50;;;;;;10415521;28;20057;-68
2022/03/26 08:33:15;;;;;;;31.38;10.15;;;10.80;70.20;;;;;;10417110;28;20056;-68
2022/03/26 08:38:16;;;;;;;31.55;11.15;;;10.90;69.20;;;;;;10407093;28;20041;-68
2022/03/26 08:43:18;;;;;;;27.00;12.15;;;11.20;69.70;;;;;;10410484;28;20057;-68
2022/03/26 08:48:20;;;;;;;28.17;11.70;;;11.30;68.50;;;;;;10409929;28;20400;-69
2022/03/26 08:53:21;;;;;;;30.77;10.82;;;11.50;67.90;;;;;;10409408;28;20049;-69
2022/03/26 08:58:24;;;;;;;29.90;10.40;;;11.70;67.00;;;;;;10407156;28;20041;-69
2022/03/26 09:03:25;;;;;;;28.60;10.23;;;12.00;66.10;;;;;;10417027;28;20077;-72
2022/03/26 09:08:30;;;;;;;29.63;11.20;;;12.20;65.70;;;;;;10411633;28;20041;-70
2022/03/26 09:13:32;;;;;;;34.50;12.32;;;12.40;64.70;;;;;;10412909;28;20072;-68
2022/03/26 09:18:34;;;;;;;31.48;10.77;;;12.70;64.30;;;;;;10412096;28;20103;-67
2022/03/26 09:23:36;;;;;;;28.63;11.48;;;12.90;64.40;;;;;;10409888;28;20073;-67
2022/03/26 09:28:37;;;;;;;28.88;10.60;;;13.20;63.80;;;;;;10414209;28;20107;-67
2022/03/26 09:33:39;;;;;;;28.27;11.13;;;13.40;60.20;;;;;;10410336;28;20103;-68
2022/03/26 09:38:41;;;;;;;30.48;11.02;;;13.60;59.90;;;;;;10412883;28;20125;-68
2022/03/26 09:43:43;;;;;;;32.33;11.07;;;13.80;59.50;;;;;;10404159;28;20456;-68
2022/03/26 09:48:45;;;;;;;24.52;10.73;;;14.00;58.20;;;;;;10412013;28;20100;-69
2022/03/26 09:53:50;;;;;;;21.50;10.82;;;14.10;58.20;;;;;;10410279;28;20514;-67
2022/03/26 09:58:52;;;;;;;24.23;9.75;;;14.40;57.30;;;;;;10412985;28;20063;-67
2022/03/26 10:04:27;;;;;;;25.98;10.02;;;14.50;56.70;;;;;;10408799;28;20072;-67
2022/03/26 10:09:48;;;;;;;22.60;9.73;;;14.70;56.10;;;;;;10409139;28;20045;-67
2022/03/26 10:14:56;;;;;;;26.75;9.98;;;15.00;56.70;;;;;;10412181;28;20557;-66
2022/03/26 10:20:13;;;;;;;24.77;11.10;;;15.20;55.80;;;;;;10405166;28;20045;-67
2022/03/26 10:25:18;;;;;;;23.02;9.57;;;15.50;55.20;;;;;;10404870;28;20563;-68
2022/03/26 10:35:55;;;;;;;23.38;10.23;;;15.90;52.30;;;;;;10408116;28;20064;-68
2022/03/26 10:41:01;;;;;;;23.70;9.77;;;16.10;53.00;;;;;;10423368;28;20041;-68
2022/03/26 10:46:02;;;;;;;23.45;10.07;;;16.30;52.80;;;;;;10404511;28;20053;-68
2022/03/26 10:51:15;;;;;;;31.95;11.48;;;16.50;51.60;;;;;;10399386;28;20057;-68
2022/03/26 10:56:16;;;;;;;21.80;9.68;;;16.70;51.40;;;;;;10403314;28;20087;-67
2022/03/26 11:01:18;;;;;;;25.70;10.45;;;16.90;51.20;;;;;;10406323;28;20045;-67
2022/03/26 11:06:27;;;;;;;19.75;9.15;;;16.90;49.90;;;;;;10408008;28;20056;-66
2022/03/26 11:11:29;;;;;;;25.95;10.18;;;17.10;50.60;;;;;;10406609;28;20098;-66
2022/03/26 11:17:07;;;;;;;27.48;10.18;;;17.30;50.10;;;;;;10380404;28;20123;-68
2022/03/26 11:22:32;;;;;;;19.90;9.02;;;17.40;49.20;;;;;;10394970;28;20049;-70
2022/03/26 11:27:59;;;;;;;22.42;9.55;;;17.70;50.00;;;;;;10406782;28;20037;-70
2022/03/26 11:33:17;;;;;;;25.27;9.83;;;17.80;49.60;;;;;;10411931;28;20048;-70
2022/03/26 11:38:19;;;;;;;26.40;10.15;;;18.00;49.00;;;;;;10402616;28;20055;-68
2022/03/26 11:43:42;;;;;;;25.42;8.88;;;18.10;49.00;;;;;;10403555;28;20048;-68
2022/03/26 11:54:14;;;;;;;24.48;9.48;;;18.70;47.40;;;;;;10404539;28;20098;-68
2022/03/26 11:59:15;;;;;;;21.67;8.73;;;18.80;46.80;;;;;;10404710;28;20049;-67
2022/03/26 12:04:20;;;;;;;20.83;9.43;;;18.80;45.90;;;;;;10414154;28;20564;-67
2022/03/26 12:09:36;;;;;;;27.42;8.93;;;19.00;46.60;;;;;;10408116;28;20034;-68
2022/03/26 12:15:08;;;;;;;20.02;7.53;;;19.20;46.00;;;;;;10405321;28;20060;-67
2022/03/26 12:20:34;;;;;;;18.90;8.23;;;19.40;45.40;;;;;;10399140;28;20037;-67
2022/03/26 12:25:46;;;;;;;19.35;7.78;;;19.60;46.00;;;;;;10407543;28;20060;-62
2022/03/26 12:30:51;;;;;;;18.08;7.97;;;19.80;45.50;;;;;;10406840;28;20061;-68
2022/03/26 12:35:55;;;;;;;26.33;8.95;;;19.90;45.20;;;;;;10408017;28;20061;-70
2022/03/26 12:40:59;;;;;;;23.98;8.77;;;20.20;44.60;;;;;;10409004;28;20049;-71
2022/03/26 12:46:09;;;;;;;25.35;8.73;;;20.30;43.00;;;;;;10401402;28;20049;-71
2022/03/26 12:51:11;;;;;;;17.13;8.63;;;20.60;44.00;;;;;;10407647;28;20588;-70
2022/03/26 12:56:14;;;;;;;16.85;7.72;;;20.70;42.60;;;;;;10412538;28;20052;-72
2022/03/26 13:01:19;;;;;;;16.10;8.52;;;20.80;42.20;;;;;;10399215;28;20053;-73
2022/03/26 13:06:24;;;;;;;19.92;6.93;;;21.00;42.50;;;;;;10413079;28;20053;-73
2022/03/26 13:11:28;;;;;;;13.25;7.70;;;21.30;41.30;;;;;;10412959;28;20060;-71
2022/03/26 13:16:32;;;;;;;15.90;7.57;;;21.40;40.50;;;;;;10425709;28;21186;-72
2022/03/26 13:21:43;;;;;;;23.00;7.82;;;21.50;40.50;;;;;;10408999;28;20127;-71
2022/03/26 13:27:00;;;;;;;16.80;8.23;;;21.50;40.90;;;;;;10403837;28;20052;-71
2022/03/26 13:32:07;;;;;;;20.13;7.97;;;21.60;40.70;;;;;;10408091;28;20059;-70
2022/03/26 13:37:15;;;;;;;18.35;7.93;;;21.50;40.70;;;;;;10420673;28;20077;-71
2022/03/26 13:42:19;;;;;;;14.63;6.50;;;21.60;40.10;;;;;;10416987;28;20052;-71
2022/03/26 13:47:23;;;;;;;16.83;6.35;;;21.90;39.70;;;;;;10413838;28;20049;-71
2022/03/26 13:52:27;;;;;;;15.60;5.53;;;21.90;39.50;;;;;;10408327;28;23849;-70
2022/03/26 13:57:31;;;;;;;13.82;5.75;;;22.10;38.20;;;;;;10409582;28;20102;-71
2022/03/26 14:02:37;;;;;;;10.20;4.78;;;22.00;38.20;;;;;;10413442;28;20083;-72
2022/03/26 14:07:39;;;;;;;13.20;5.18;;;22.20;38.20;;;;;;10408939;28;20050;-71
2022/03/26 14:12:41;;;;;;;14.15;4.75;;;22.40;37.80;;;;;;10405898;28;20664;-70
2022/03/26 14:17:42;;;;;;;9.38;5.75;;;22.60;38.50;;;;;;10408308;28;20057;-70
2022/03/26 14:22:45;;;;;;;10.35;4.38;;;22.50;37.20;;;;;;10409695;28;20053;-70
2022/03/26 14:27:47;;;;;;;14.75;5.63;;;22.80;37.40;;;;;;10404947;28;20052;-70
2022/03/26 14:32:49;;;;;;;16.25;5.00;;;22.90;37.00;;;;;;10411240;28;20072;-68
2022/03/26 14:37:50;;;;;;;16.63;5.88;;;22.90;36.20;;;;;;10410935;28;20049;-69
2022/03/26 14:42:52;;;;;;;12.68;4.70;;;23.20;36.70;;;;;;10403879;28;20053;-69
2022/03/26 14:47:54;;;;;;;9.63;5.32;;;23.30;36.80;;;;;;10408821;28;20228;-69
2022/03/26 14:52:56;;;;;;;16.10;5.97;;;23.10;36.70;;;;;;10407575;28;20181;-69
2022/03/26 14:57:58;;;;;;;17.02;6.00;;;23.30;37.40;;;;;;10406781;28;20049;-69
2022/03/26 15:03:01;;;;;;;17.35;6.20;;;23.30;37.50;;;;;;10407939;28;20080;-70
2022/03/26 15:08:03;;;;;;;15.75;6.22;;;23.00;36.90;;;;;;10406886;28;20053;-70
2022/03/26 15:13:05;;;;;;;15.23;5.78;;;23.10;37.50;;;;;;10408632;28;20080;-70
2022/03/26 15:18:07;;;;;;;13.18;5.45;;;23.20;40.30;;;;;;10402385;28;20083;-71
2022/03/26 15:23:08;;;;;;;15.18;6.00;;;22.60;37.70;;;;;;10395852;28;20065;-70
2022/03/26 15:28:11;;;;;;;9.80;4.10;;;22.30;38.20;;;;;;10406306;28;20045;-70
2022/03/26 15:33:12;;;;;;;11.18;4.38;;;22.00;38.00;;;;;;10405247;28;20042;-70
2022/03/26 15:38:15;;;;;;;11.98;4.38;;;21.60;38.40;;;;;;10408001;28;20099;-71
2022/03/26 15:43:16;;;;;;;10.60;4.03;;;21.50;39.20;;;;;;10407936;28;20045;-70
2022/03/26 15:48:18;;;;;;;10.63;3.55;;;21.10;39.10;;;;;;10404123;28;20069;-70
2022/03/26 15:53:19;;;;;;;10.40;4.20;;;20.90;39.50;;;;;;10406285;28;20111;-69
2022/03/26 15:58:21;;;;;;;8.23;3.38;;;20.70;40.00;;;;;;10409418;28;20098;-68
2022/03/26 16:03:23;;;;;;;8.20;2.58;;;20.60;40.70;;;;;;10406729;28;20085;-68
2022/03/26 16:08:25;;;;;;;5.22;1.55;;;20.40;40.30;;;;;;10407940;28;20041;-67
2022/03/26 16:13:27;;;;;;;3.60;1.65;;;20.40;40.30;;;;;;10407087;28;20483;-68
2022/03/26 16:18:28;;;;;;;7.18;1.25;;;20.20;39.70;;;;;;10406096;28;20073;-65
2022/03/26 16:23:30;;;;;;;4.82;1.30;;;20.20;40.30;;;;;;10404656;28;20056;-65
2022/03/26 16:28:32;;;;;;;4.72;1.35;;;20.20;40.90;;;;;;10404089;28;20770;-65
2022/03/26 16:33:34;;;;;;;6.90;1.35;;;20.10;41.10;;;;;;10402958;28;20376;-65
2022/03/26 16:38:36;;;;;;;6.68;0.70;;;19.90;41.70;;;;;;10408657;28;20044;-68
2022/03/26 16:43:38;;;;;;;4.25;0.90;;;19.70;42.50;;;;;;10416596;28;20103;-67
2022/03/26 16:48:43;;;;;;;4.68;0.80;;;19.60;43.00;;;;;;10406134;28;20119;-69
2022/03/26 16:53:45;;;;;;;3.80;0.90;;;19.50;43.80;;;;;;10404117;28;20495;-69
2022/03/26 16:58:47;;;;;;;9.05;1.70;;;19.40;44.80;;;;;;10409116;28;20053;-69
2022/03/26 17:03:48;;;;;;;5.18;1.60;;;19.20;45.30;;;;;;10413072;28;20040;-69
2022/03/26 17:08:50;;;;;;;9.25;3.38;;;19.00;46.70;;;;;;10414255;28;20050;-69
2022/03/26 17:13:52;;;;;;;6.35;2.63;;;18.70;47.20;;;;;;10414839;28;20080;-70
2022/03/26 17:18:53;;;;;;;8.57;2.78;;;18.40;48.00;;;;;;10419401;28;20045;-69
2022/03/26 17:23:55;;;;;;;11.77;3.20;;;18.10;49.00;;;;;;10417775;28;20153;-69
2022/03/26 17:28:57;;;;;;;5.45;2.67;;;17.80;49.90;;;;;;10410479;28;20305;-69
2022/03/26 17:33:58;;;;;;;5.70;2.47;;;17.50;50.70;;;;;;10413674;28;20056;-71
2022/03/26 17:39:00;;;;;;;10.35;2.50;;;17.30;51.30;;;;;;10410046;28;20499;-69
2022/03/26 17:44:02;;;;;;;8.40;3.60;;;16.90;51.90;;;;;;10408714;28;20107;-65
2022/03/26 17:49:04;;;;;;;8.77;4.68;;;16.70;52.40;;;;;;10407806;28;20122;-65
2022/03/26 17:54:05;;;;;;;7.20;3.25;;;16.50;52.90;;;;;;10406651;28;20053;-68
2022/03/26 17:59:08;;;;;;;5.75;2.78;;;16.30;53.60;;;;;;10400621;28;20362;-68
2022/03/26 18:04:11;;;;;;;6.05;2.55;;;16.10;54.40;;;;;;10411920;28;20056;-67
2022/03/26 18:09:13;;;;;;;11.20;3.70;;;15.90;54.90;;;;;;10408589;28;20045;-67
2022/03/26 18:14:15;;;;;;;8.30;2.53;;;15.70;55.30;;;;;;10411998;28;20160;-67
2022/03/26 18:19:16;;;;;;;6.05;2.88;;;15.60;56.80;;;;;;10405693;28;20065;-64
2022/03/26 18:24:18;;;;;;;8.80;2.55;;;15.30;55.40;;;;;;10406068;28;20594;-64
2022/03/26 18:29:20;;;;;;;7.53;2.90;;;15.10;56.00;;;;;;10412051;28;20044;-64
2022/03/26 18:34:22;;;;;;;9.07;2.60;;;14.90;56.10;;;;;;10407171;28;20087;-63
2022/03/26 18:39:24;;;;;;;7.45;3.20;;;14.70;56.50;;;;;;10408321;28;20098;-64
2022/03/26 18:44:26;;;;;;;7.88;3.47;;;14.50;57.00;;;;;;10405273;28;20084;-64
2022/03/26 18:49:28;;;;;;;9.93;4.47;;;14.40;57.40;;;;;;10409793;28;20052;-64
2022/03/26 18:54:29;;;;;;;12.52;4.90;;;14.20;58.60;;;;;;10405196;28;20130;-64
2022/03/26 18:59:31;;;;;;;9.43;4.38;;;14.00;58.80;;;;;;10395487;28;20052;-64
2022/03/26 19:04:33;;;;;;;8.93;4.35;;;13.80;59.10;;;;;;10403484;28;20133;-64
2022/03/26 19:09:35;;;;;;;9.68;4.25;;;13.70;59.70;;;;;;10405998;28;20103;-64
2022/03/26 19:14:36;;;;;;;12.45;6.03;;;13.60;60.50;;;;;;10402674;28;20057;-64
2022/03/26 19:19:39;;;;;;;12.07;3.63;;;13.40;60.90;;;;;;10406818;28;20045;-64
2022/03/26 19:24:41;;;;;;;7.78;3.35;;;13.30;61.10;;;;;;10400553;28;20106;-64
2022/03/26 19:29:43;;;;;;;6.97;3.10;;;13.10;61.60;;;;;;10407581;28;20080;-64
2022/03/26 19:34:45;;;;;;;9.20;3.35;;;13.00;61.90;;;;;;10405538;28;20484;-64
2022/03/26 19:39:46;;;;;;;7.53;3.30;;;12.90;62.50;;;;;;10407497;28;20118;-63
2022/03/26 19:44:49;;;;;;;8.05;3.22;;;12.90;63.10;;;;;;10408550;28;20687;-63
2022/03/26 19:49:51;;;;;;;7.45;3.55;;;12.80;63.40;;;;;;10402436;28;20053;-64
2022/03/26 19:54:53;;;;;;;11.80;4.15;;;12.80;64.20;;;;;;10403209;28;20095;-65
2022/03/26 19:59:57;;;;;;;9.15;3.72;;;12.70;64.50;;;;;;10407913;28;20053;-64
2022/03/26 20:04:58;;;;;;;9.60;4.20;;;12.70;64.70;;;;;;10398693;28;20131;-64
2022/03/26 20:10:00;;;;;;;8.80;4.47;;;12.60;64.90;;;;;;10410627;28;20053;-64
2022/03/26 20:15:02;;;;;;;10.90;4.43;;;12.50;64.70;;;;;;10400523;28;20150;-63
2022/03/26 20:20:04;;;;;;;8.20;3.85;;;12.40;65.00;;;;;;10399204;28;20099;-64
2022/03/26 20:25:06;;;;;;;10.50;4.10;;;12.30;66.00;;;;;;10407478;28;20495;-64
2022/03/26 20:30:08;;;;;;;14.55;5.70;;;12.30;65.50;;;;;;10402824;28;20089;-63
2022/03/26 20:35:09;;;;;;;13.02;6.15;;;12.30;65.60;;;;;;10405330;28;20106;-64
2022/03/26 20:40:11;;;;;;;17.00;5.05;;;12.30;65.70;;;;;;10403667;28;20130;-63
2022/03/26 20:45:14;;;;;;;9.50;4.72;;;12.30;65.80;;;;;;10424723;28;20053;-64
2022/03/26 20:50:16;;;;;;;11.50;4.55;;;12.30;66.10;;;;;;10407558;28;20049;-64
2022/03/26 20:55:18;;;;;;;13.90;5.57;;;12.30;66.30;;;;;;10402228;28;20102;-64
2022/03/26 21:00:20;;;;;;;13.98;5.68;;;12.30;66.60;;;;;;10403293;28;20053;-64
2022/03/26 21:05:21;;;;;;;14.63;6.35;;;12.20;66.90;;;;;;10404325;28;20056;-64
2022/03/26 21:10:24;;;;;;;15.60;6.70;;;12.20;67.10;;;;;;10403094;28;20111;-64
2022/03/26 21:15:25;;;;;;;14.00;5.97;;;12.20;67.40;;;;;;10401670;28;21521;-64
2022/03/26 21:20:27;;;;;;;13.55;6.38;;;12.20;67.90;;;;;;10404711;28;20053;-64
2022/03/26 21:25:48;;;;;;;13.35;6.20;;;12.10;68.20;;;;;;10415872;28;20064;-65
2022/03/26 21:30:51;;;;;;;17.38;6.82;;;12.00;68.50;;;;;;10410374;28;20106;-65
2022/03/26 21:35:54;;;;;;;14.57;6.38;;;11.90;69.10;;;;;;10415823;28;20080;-64
2022/03/26 21:40:58;;;;;;;19.13;6.65;;;11.80;69.70;;;;;;10407284;28;20323;-65
2022/03/26 21:46:00;;;;;;;15.55;6.43;;;11.60;70.50;;;;;;10410727;28;20605;-64
2022/03/26 21:51:02;;;;;;;14.32;7.40;;;11.50;71.60;;;;;;10405851;28;20044;-63
2022/03/26 21:56:04;;;;;;;15.93;5.85;;;11.30;72.10;;;;;;10412488;28;20053;-63
2022/03/26 22:01:06;;;;;;;16.63;5.85;;;11.20;72.80;;;;;;10404055;28;20118;-62
2022/03/26 22:06:08;;;;;;;12.30;5.82;;;11.00;73.20;;;;;;10408869;28;20047;-64
2022/03/26 22:11:10;;;;;;;11.15;5.63;;;10.90;73.90;;;;;;10418114;28;20091;-63
2022/03/26 22:16:12;;;;;;;15.23;6.00;;;11.00;74.20;;;;;;10413026;28;20104;-64
2022/03/26 22:21:13;;;;;;;15.95;6.32;;;10.90;74.70;;;;;;10401818;28;20672;-63
2022/03/26 22:26:21;;;;;;;17.90;6.53;;;10.90;74.90;;;;;;10266773;22;20441;-90
2022/03/26 22:31:55;;;;;;;12.80;6.35;;;10.90;75.00;;;;;;10075046;28;20054;-90
2022/03/26 22:37:42;;;;;;;14.50;7.30;;;10.90;75.00;;;;;;10048290;28;20057;-90
2022/03/26 22:42:56;;;;;;;14.70;7.28;;;10.60;76.20;;;;;;10098366;28;20051;-90
2022/03/26 22:48:31;;;;;;;16.77;6.68;;;10.40;77.30;;;;;;10075263;28;20058;-90
2022/03/26 22:53:54;;;;;;;16.48;6.63;;;10.20;79.00;;;;;;10056626;28;20120;-90
2022/03/26 22:59:30;;;;;;;15.52;7.43;;;10.00;80.50;;;;;;10103791;28;20061;-90
2022/03/26 23:05:16;;;;;;;16.42;6.28;;;9.90;81.90;;;;;;10088200;28;20045;-90
2022/03/26 23:10:36;;;;;;;16.60;6.93;;;9.70;82.70;;;;;;10146937;28;20108;-89
2022/03/26 23:16:05;;;;;;;18.08;7.50;;;9.70;83.60;;;;;;10255018;28;20048;-90
2022/03/26 23:21:08;;;;;;;17.63;6.95;;;9.50;84.10;;;;;;10331677;28;20108;-90
2022/03/26 23:26:10;;;;;;;15.40;6.00;;;9.50;86.10;;;;;;10251635;28;20058;-90
2022/03/26 23:31:45;;;;;;;19.90;7.50;;;9.40;88.00;;;;;;10163889;28;20706;-91
2022/03/26 23:36:48;;;;;;;16.35;6.85;;;9.30;88.70;;;;;;9990514;28;20144;-90
2022/03/26 23:41:54;;;;;;;16.88;6.30;;;9.20;90.20;;;;;;9980668;28;20084;-90
2022/03/26 23:47:23;;;;;;;12.75;5.65;;;9.10;91.20;;;;;;9991217;28;20051;-90
2022/03/26 23:52:42;;;;;;;15.38;6.78;;;9.10;90.70;;;;;;9944260;28;20077;-90
2022/03/26 23:57:51;;;;;;;18.75;6.45;;;9.00;92.20;;;;;;10018807;28;20081;-90
